createdAt,value
2022-08-26T00:00:27.529Z,26.12
2022-08-26T00:01:44.123Z,26.26
2022-08-26T00:02:52.408Z,26.26
2022-08-26T00:04:00.459Z,26.30
2022-08-26T00:05:07.774Z,25.97
2022-08-26T00:06:16.222Z,25.90
2022-08-26T00:07:29.292Z,25.77
2022-08-26T00:08:36.828Z,26.07
2022-08-26T00:09:47.828Z,26.21
2022-08-26T00:10:57.791Z,26.46
2022-08-26T00:12:08.007Z,26.79
2022-08-26T00:13:19.495Z,26.86
2022-08-26T00:14:31.007Z,26.82
2022-08-26T00:15:40.475Z,26.87
2022-08-26T00:16:48.997Z,26.66
2022-08-26T00:17:56.619Z,26.67
2022-08-26T00:19:04.129Z,26.95
2022-08-26T00:20:12.430Z,27.28
2022-08-26T00:21:22.241Z,26.90
2022-08-26T00:22:32.572Z,26.71
2022-08-26T00:23:40.800Z,26.41
2022-08-26T00:24:49.492Z,26.63
2022-08-26T00:25:57.506Z,26.67
2022-08-26T00:27:06.293Z,26.79
2022-08-26T00:28:14.377Z,27.09
2022-08-26T00:29:27.569Z,27.26
2022-08-26T00:30:38.108Z,27.49
2022-08-26T00:31:46.290Z,27.74
2022-08-26T00:32:54.225Z,27.84
2022-08-26T00:34:01.915Z,28.18
2022-08-26T00:35:11.877Z,28.18
2022-08-26T00:36:20.293Z,27.96
2022-08-26T00:37:29.604Z,27.86
2022-08-26T00:38:38.415Z,27.75
2022-08-26T00:39:47.899Z,27.63
2022-08-26T00:40:57.108Z,27.87
2022-08-26T00:42:04.326Z,28.20
2022-08-26T00:43:12.029Z,28.34
2022-08-26T00:44:21.438Z,28.37
2022-08-26T00:45:30.601Z,28.42
2022-08-26T00:46:44.974Z,28.69
2022-08-26T00:47:58.299Z,28.93
2022-08-26T00:49:42.396Z,28.90
2022-08-26T00:51:00.137Z,29.11
2022-08-26T00:52:12.067Z,29.26
2022-08-26T00:53:27.819Z,29.32
2022-08-26T00:54:37.393Z,29.43
2022-08-26T00:55:45.499Z,29.93
2022-08-26T00:57:01.493Z,30.01
2022-08-26T00:58:09.270Z,30.29
2022-08-26T00:59:17.743Z,30.46
2022-08-26T01:00:29.162Z,30.78
2022-08-26T01:01:39.385Z,30.74
2022-08-26T01:02:47.567Z,30.65
2022-08-26T01:03:55.136Z,30.55
2022-08-26T01:05:04.185Z,30.63
2022-08-26T01:06:14.313Z,30.67
2022-08-26T01:07:23.539Z,30.69
2022-08-26T01:08:32.316Z,30.82
2022-08-26T01:09:40.413Z,30.71
2022-08-26T01:10:48.714Z,30.63
2022-08-26T01:11:59.130Z,30.60
2022-08-26T01:13:08.403Z,30.49
2022-08-26T01:14:17.219Z,30.50
2022-08-26T01:15:33.437Z,30.70
2022-08-26T01:16:42.307Z,30.99
2022-08-26T01:17:52.576Z,31.01
2022-08-26T01:19:04.867Z,31.02
2022-08-26T01:20:51.978Z,30.94
2022-08-26T01:22:09.276Z,30.94
2022-08-26T01:23:17.715Z,31.32
2022-08-26T01:24:30.998Z,31.22
2022-08-26T01:25:44.942Z,31.31
2022-08-26T01:26:52.691Z,31.26
2022-08-26T01:27:59.629Z,31.31
2022-08-26T01:29:07.285Z,31.30
2022-08-26T01:30:16.264Z,31.45
2022-08-26T01:31:27.052Z,31.47
2022-08-26T01:32:35.316Z,31.51
2022-08-26T01:33:58.796Z,31.62
2022-08-26T01:35:07.829Z,31.78
2022-08-26T01:36:17.197Z,31.66
2022-08-26T01:37:29.278Z,31.81
2022-08-26T01:38:37.209Z,31.79
2022-08-26T01:39:45.208Z,31.87
2022-08-26T01:40:52.735Z,32.02
2022-08-26T01:42:03.216Z,32.17
2022-08-26T01:43:10.555Z,32.06
2022-08-26T01:44:19.839Z,32.43
2022-08-26T01:45:29.888Z,32.56
2022-08-26T01:46:37.590Z,32.90
2022-08-26T01:47:45.531Z,33.04
2022-08-26T01:48:54.524Z,33.02
2022-08-26T01:50:03.168Z,33.21
2022-08-26T01:51:11.251Z,33.35
2022-08-26T01:52:28.090Z,33.66
2022-08-26T01:53:37.276Z,34.07
2022-08-26T01:54:46.358Z,34.35
2022-08-26T01:56:01.103Z,34.37
2022-08-26T01:57:10.317Z,34.60
2022-08-26T01:58:29.096Z,34.86
2022-08-26T01:59:37.929Z,35.04
2022-08-26T02:00:46.368Z,35.16
2022-08-26T02:01:54.508Z,35.36
2022-08-26T02:03:23.527Z,35.53
2022-08-26T02:04:44.994Z,35.77
2022-08-26T02:05:58.685Z,36.09
2022-08-26T02:07:08.409Z,36.39
2022-08-26T02:08:16.868Z,36.52
2022-08-26T02:09:33.677Z,36.83
2022-08-26T02:10:49.238Z,37.13
2022-08-26T02:12:03.358Z,37.40
2022-08-26T02:13:11.779Z,37.98
2022-08-26T02:14:30.721Z,38.20
2022-08-26T02:15:39.158Z,38.61
2022-08-26T02:16:48.739Z,38.48
2022-08-26T02:17:57.747Z,38.91
2022-08-26T02:19:06.479Z,39.24
2022-08-26T02:20:21.268Z,39.36
2022-08-26T02:21:29.947Z,39.83
2022-08-26T02:22:38.915Z,40.01
2022-08-26T02:23:49.831Z,40.16
2022-08-26T02:25:00.237Z,40.52
2022-08-26T02:26:19.203Z,40.67
2022-08-26T02:27:34.119Z,40.82
2022-08-26T02:28:55.439Z,41.00
2022-08-26T02:30:14.107Z,41.31
2022-08-26T02:31:28.362Z,41.38
2022-08-26T02:32:36.503Z,41.55
2022-08-26T02:33:44.184Z,41.57
2022-08-26T02:34:51.558Z,41.80
2022-08-26T02:35:59.350Z,41.87
2022-08-26T02:37:09.899Z,42.09
2022-08-26T02:38:18.535Z,42.07
2022-08-26T02:39:27.961Z,42.11
2022-08-26T02:40:37.758Z,42.19
2022-08-26T02:41:47.022Z,42.39
2022-08-26T02:42:57.104Z,42.49
2022-08-26T02:44:04.621Z,42.56
2022-08-26T02:45:12.866Z,42.77
2022-08-26T02:46:26.771Z,42.83
2022-08-26T02:47:40.116Z,42.88
2022-08-26T02:48:48.345Z,42.56
2022-08-26T02:49:56.593Z,42.50
2022-08-26T02:51:04.439Z,42.46
2022-08-26T02:52:13.085Z,42.69
2022-08-26T02:53:25.197Z,42.64
2022-08-26T02:54:34.846Z,42.68
2022-08-26T02:55:43.442Z,42.66
2022-08-26T02:56:51.981Z,42.65
2022-08-26T02:57:59.669Z,42.46
2022-08-26T02:59:07.188Z,42.38
2022-08-26T03:00:17.277Z,42.51
2022-08-26T03:01:31.588Z,42.24
2022-08-26T03:02:39.329Z,42.14
2022-08-26T03:03:47.550Z,41.93
2022-08-26T03:05:01.791Z,41.93
2022-08-26T03:06:10.556Z,41.98
2022-08-26T03:07:18.389Z,41.89
2022-08-26T03:08:27.059Z,41.86
2022-08-26T03:09:36.031Z,42.08
2022-08-26T03:10:44.407Z,42.35
2022-08-26T03:11:53.516Z,42.37
2022-08-26T03:13:05.130Z,42.25
2022-08-26T03:14:14.981Z,42.35
2022-08-26T03:15:25.046Z,42.56
2022-08-26T03:16:37.209Z,42.55
2022-08-26T03:17:46.143Z,42.69
2022-08-26T03:18:54.016Z,42.88
2022-08-26T03:20:01.775Z,42.79
2022-08-26T03:21:14.405Z,43.09
2022-08-26T03:22:23.015Z,42.96
2022-08-26T03:23:33.727Z,43.01
2022-08-26T03:24:46.057Z,43.09
2022-08-26T03:25:54.776Z,43.10
2022-08-26T03:27:05.944Z,43.11
2022-08-26T03:28:16.214Z,43.37
2022-08-26T03:29:49.529Z,43.63
2022-08-26T03:30:59.560Z,43.48
2022-08-26T03:32:07.713Z,43.73
2022-08-26T03:33:16.195Z,43.56
2022-08-26T03:34:24.623Z,43.80
2022-08-26T03:35:35.610Z,43.77
2022-08-26T03:36:43.799Z,43.94
2022-08-26T03:37:52.637Z,43.90
2022-08-26T03:39:00.395Z,44.09
2022-08-26T03:40:09.653Z,44.28
2022-08-26T03:41:17.388Z,44.20
2022-08-26T03:42:25.143Z,44.20
2022-08-26T03:43:33.049Z,44.30
2022-08-26T03:44:42.464Z,44.36
2022-08-26T03:45:51.333Z,44.31
2022-08-26T03:47:00.268Z,44.36
2022-08-26T03:48:07.942Z,44.50
2022-08-26T03:49:15.973Z,44.66
2022-08-26T03:50:25.226Z,44.73
2022-08-26T03:51:34.962Z,44.70
2022-08-26T03:52:48.434Z,44.81
2022-08-26T03:53:57.127Z,44.97
2022-08-26T03:55:05.669Z,45.05
2022-08-26T03:56:13.377Z,44.98
2022-08-26T03:57:22.757Z,45.07
2022-08-26T03:58:31.218Z,45.19
2022-08-26T03:59:41.273Z,45.28
2022-08-26T04:00:49.616Z,45.30
2022-08-26T04:02:03.425Z,45.37
2022-08-26T04:03:37.824Z,45.55
2022-08-26T04:04:46.609Z,45.68
2022-08-26T04:05:54.799Z,45.87
2022-08-26T04:07:02.804Z,45.80
2022-08-26T04:08:10.154Z,46.11
2022-08-26T04:09:22.738Z,46.06
2022-08-26T04:10:35.065Z,46.05
2022-08-26T04:11:44.236Z,46.17
2022-08-26T04:12:53.352Z,46.11
2022-08-26T04:14:01.996Z,46.24
2022-08-26T04:15:10.741Z,46.09
2022-08-26T04:16:19.249Z,46.18
2022-08-26T04:17:27.939Z,46.17
2022-08-26T04:18:40.559Z,46.29
2022-08-26T04:19:57.541Z,46.19
2022-08-26T04:21:04.694Z,46.12
2022-08-26T04:22:15.150Z,46.35
2022-08-26T04:23:32.293Z,46.33
2022-08-26T04:24:55.497Z,46.43
2022-08-26T04:26:03.358Z,46.32
2022-08-26T04:27:12.768Z,46.39
2022-08-26T04:28:20.908Z,46.62
2022-08-26T04:29:29.685Z,46.62
2022-08-26T04:30:41.247Z,46.73
2022-08-26T04:31:51.702Z,46.76
2022-08-26T04:33:13.348Z,46.82
2022-08-26T04:34:21.786Z,47.04
2022-08-26T04:35:29.908Z,47.20
2022-08-26T04:36:37.379Z,47.43
2022-08-26T04:37:45.975Z,47.44
2022-08-26T04:38:54.147Z,47.77
2022-08-26T04:40:01.752Z,47.88
2022-08-26T04:41:15.418Z,47.83
2022-08-26T04:42:26.048Z,48.32
2022-08-26T04:43:35.303Z,48.73
2022-08-26T04:44:43.285Z,48.83
2022-08-26T04:45:51.600Z,49.02
2022-08-26T04:47:00.389Z,49.33
2022-08-26T04:48:07.975Z,49.47
2022-08-26T04:49:19.574Z,49.65
2022-08-26T04:50:28.668Z,49.48
2022-08-26T04:51:40.686Z,49.63
2022-08-26T04:52:48.817Z,49.84
2022-08-26T04:54:04.795Z,49.93
2022-08-26T04:55:12.681Z,50.09
2022-08-26T04:56:22.232Z,50.24
2022-08-26T04:57:30.462Z,50.24
2022-08-26T04:58:40.340Z,50.91
2022-08-26T04:59:50.039Z,51.34
2022-08-26T05:00:58.105Z,51.96
2022-08-26T05:02:05.798Z,52.34
2022-08-26T05:03:14.002Z,52.55
2022-08-26T05:04:22.990Z,52.51
2022-08-26T05:05:33.653Z,52.60
2022-08-26T05:06:43.576Z,52.87
2022-08-26T05:07:52.205Z,53.00
2022-08-26T05:09:01.379Z,53.80
2022-08-26T05:10:10.733Z,53.52
2022-08-26T05:11:19.270Z,53.43
2022-08-26T05:12:34.472Z,53.44
2022-08-26T05:13:43.576Z,53.83
2022-08-26T05:14:51.945Z,54.24
2022-08-26T05:16:01.265Z,55.23
2022-08-26T05:17:08.938Z,55.53
2022-08-26T05:18:18.142Z,55.41
2022-08-26T05:19:28.231Z,55.40
2022-08-26T05:20:40.820Z,55.67
2022-08-26T05:21:50.354Z,55.73
2022-08-26T05:22:58.599Z,55.88
2022-08-26T05:24:06.903Z,56.15
2022-08-26T05:25:14.386Z,56.82
2022-08-26T05:26:23.021Z,56.92
2022-08-26T05:27:31.178Z,56.88
2022-08-26T05:28:40.448Z,56.86
2022-08-26T05:29:47.978Z,56.84
2022-08-26T05:31:02.245Z,57.45
2022-08-26T05:32:09.850Z,58.05
2022-08-26T05:33:19.790Z,58.36
2022-08-26T05:34:30.282Z,58.24
2022-08-26T05:35:39.820Z,58.78
2022-08-26T05:36:48.081Z,58.85
2022-08-26T05:37:56.181Z,59.45
2022-08-26T05:39:04.041Z,59.81
2022-08-26T05:40:12.585Z,60.07
2022-08-26T05:41:26.406Z,59.71
2022-08-26T05:42:35.380Z,59.78
2022-08-26T05:43:43.415Z,59.86
2022-08-26T05:44:56.056Z,59.98
2022-08-26T05:46:08.399Z,60.24
2022-08-26T05:47:15.960Z,60.58
2022-08-26T05:48:25.618Z,60.61
2022-08-26T05:49:33.741Z,60.64
2022-08-26T05:50:46.395Z,60.47
2022-08-26T05:51:54.939Z,60.53
2022-08-26T05:53:02.894Z,60.45
2022-08-26T05:54:12.180Z,60.97
2022-08-26T05:55:20.718Z,61.36
2022-08-26T05:56:30.749Z,61.64
2022-08-26T05:57:40.555Z,61.92
2022-08-26T05:58:51.906Z,62.06
2022-08-26T05:59:59.509Z,62.18
2022-08-26T06:01:09.701Z,62.20
2022-08-26T06:02:17.714Z,62.14
2022-08-26T06:03:27.838Z,62.51
2022-08-26T06:04:35.066Z,62.49
2022-08-26T06:05:43.763Z,63.04
2022-08-26T06:06:52.580Z,63.17
2022-08-26T06:08:20.849Z,63.48
2022-08-26T06:09:29.649Z,64.11
2022-08-26T06:10:59.555Z,64.34
2022-08-26T06:12:07.037Z,64.25
2022-08-26T06:13:14.998Z,64.53
2022-08-26T06:14:24.787Z,64.87
2022-08-26T06:15:34.828Z,64.62
2022-08-26T06:16:47.017Z,64.48
2022-08-26T06:17:54.941Z,64.64
2022-08-26T06:19:10.831Z,64.73
2022-08-26T06:20:20.688Z,64.43
2022-08-26T06:21:34.699Z,64.30
2022-08-26T06:23:00.420Z,64.81
2022-08-26T06:24:30.705Z,65.37
2022-08-26T06:25:40.563Z,65.49
2022-08-26T06:26:55.862Z,65.45
2022-08-26T06:28:03.700Z,65.45
2022-08-26T06:29:11.501Z,65.48
2022-08-26T06:30:25.266Z,65.18
2022-08-26T06:31:34.639Z,64.90
2022-08-26T06:32:42.037Z,64.86
2022-08-26T06:33:50.248Z,65.17
2022-08-26T06:34:57.932Z,65.81
2022-08-26T06:36:05.186Z,65.84
2022-08-26T06:37:12.278Z,65.88
2022-08-26T06:38:20.880Z,66.18
2022-08-26T06:39:30.868Z,66.63
2022-08-26T06:40:47.461Z,66.80
2022-08-26T06:41:57.740Z,66.46
2022-08-26T06:43:05.355Z,66.28
2022-08-26T06:44:13.159Z,66.08
2022-08-26T06:45:21.687Z,66.15
2022-08-26T06:46:30.530Z,65.91
2022-08-26T06:47:39.274Z,66.02
2022-08-26T06:48:47.774Z,66.38
2022-08-26T06:49:55.938Z,67.11
2022-08-26T06:51:11.857Z,67.35
2022-08-26T06:52:24.420Z,67.76
2022-08-26T06:53:34.171Z,67.90
2022-08-26T06:54:44.749Z,67.99
2022-08-26T06:55:52.732Z,68.49
2022-08-26T06:57:00.566Z,68.64
2022-08-26T06:58:07.721Z,68.46
2022-08-26T06:59:14.975Z,68.68
2022-08-26T07:00:23.187Z,68.70
2022-08-26T07:01:36.802Z,68.61
2022-08-26T07:02:47.033Z,68.62
2022-08-26T07:03:57.854Z,68.55
2022-08-26T07:05:06.290Z,68.41
2022-08-26T07:06:14.788Z,68.53
2022-08-26T07:07:24.570Z,68.84
2022-08-26T07:08:31.969Z,68.90
2022-08-26T07:09:41.799Z,68.80
2022-08-26T07:10:49.759Z,68.96
2022-08-26T07:12:01.055Z,69.13
2022-08-26T07:13:08.708Z,69.12
2022-08-26T07:14:15.947Z,69.00
2022-08-26T07:15:23.901Z,68.86
2022-08-26T07:16:40.778Z,68.67
2022-08-26T07:17:48.319Z,68.56
2022-08-26T07:18:57.372Z,68.84
2022-08-26T07:20:07.591Z,68.75
2022-08-26T07:21:18.288Z,68.87
2022-08-26T07:22:27.939Z,68.92
2022-08-26T07:23:37.336Z,69.07
2022-08-26T07:24:49.317Z,69.08
2022-08-26T07:25:56.691Z,68.86
2022-08-26T07:27:08.942Z,69.08
2022-08-26T07:28:15.938Z,69.03
2022-08-26T07:29:24.460Z,68.86
2022-08-26T07:30:33.004Z,68.90
2022-08-26T07:31:42.874Z,68.79
2022-08-26T07:32:51.387Z,68.89
2022-08-26T07:33:58.997Z,68.80
2022-08-26T07:35:08.167Z,68.76
2022-08-26T07:36:16.087Z,68.57
2022-08-26T07:37:24.037Z,68.60
2022-08-26T07:38:30.998Z,68.78
2022-08-26T07:39:43.260Z,68.83
2022-08-26T07:40:50.996Z,68.60
2022-08-26T07:41:58.497Z,68.67
2022-08-26T07:43:07.681Z,68.46
2022-08-26T07:44:17.006Z,68.80
2022-08-26T07:45:25.370Z,69.02
2022-08-26T07:46:34.459Z,69.02
2022-08-26T07:47:43.622Z,69.21
2022-08-26T07:48:52.212Z,69.77
2022-08-26T07:50:00.341Z,70.10
2022-08-26T07:51:08.149Z,70.11
2022-08-26T07:52:16.204Z,70.25
2022-08-26T07:53:24.635Z,70.33
2022-08-26T07:54:34.124Z,70.36
2022-08-26T07:55:42.594Z,70.49
2022-08-26T07:56:51.182Z,70.56
2022-08-26T07:58:00.557Z,70.38
2022-08-26T07:59:13.333Z,70.58
2022-08-26T08:00:22.611Z,70.80
2022-08-26T08:01:35.623Z,71.01
2022-08-26T08:02:47.873Z,71.20
2022-08-26T08:03:58.618Z,71.33
2022-08-26T08:05:06.860Z,71.57
2022-08-26T08:06:15.884Z,72.00
2022-08-26T08:07:25.823Z,72.30
2022-08-26T08:08:53.292Z,72.53
2022-08-26T08:10:01.222Z,72.84
2022-08-26T08:11:10.539Z,72.83
2022-08-26T08:12:19.739Z,73.25
2022-08-26T08:13:28.524Z,73.10
2022-08-26T08:14:39.204Z,73.08
2022-08-26T08:15:47.003Z,73.17
2022-08-26T08:16:57.872Z,72.82
2022-08-26T08:18:05.872Z,72.43
2022-08-26T08:19:24.369Z,72.37
2022-08-26T08:20:47.676Z,72.69
2022-08-26T08:22:17.968Z,72.66
2022-08-26T08:23:29.166Z,72.47
2022-08-26T08:24:38.589Z,72.69
2022-08-26T08:25:47.086Z,72.72
2022-08-26T08:26:56.138Z,72.50
2022-08-26T08:28:03.878Z,72.53
2022-08-26T08:29:12.637Z,72.39
2022-08-26T08:30:22.829Z,72.25
2022-08-26T08:32:59.322Z,72.84
2022-08-26T08:34:07.024Z,73.25
2022-08-26T08:35:16.608Z,73.72
2022-08-26T08:36:24.534Z,74.07
2022-08-26T08:37:32.411Z,73.95
2022-08-26T08:38:40.261Z,73.80
2022-08-26T08:39:53.453Z,73.43
2022-08-26T08:41:05.645Z,73.36
2022-08-26T08:42:37.020Z,73.44
2022-08-26T08:43:44.182Z,73.66
2022-08-26T08:44:52.660Z,73.54
2022-08-26T08:46:14.477Z,73.74
2022-08-26T08:47:35.225Z,73.74
2022-08-26T08:48:45.269Z,73.88
2022-08-26T08:49:52.487Z,74.24
2022-08-26T08:51:01.600Z,74.31
2022-08-26T08:52:30.299Z,74.12
2022-08-26T08:53:43.156Z,73.69
2022-08-26T08:54:50.560Z,74.36
2022-08-26T08:56:09.528Z,74.26
2022-08-26T08:57:44.440Z,74.67
2022-08-26T08:58:56.883Z,74.89
2022-08-26T09:00:13.165Z,75.23
2022-08-26T09:01:52.338Z,75.59
2022-08-26T09:03:07.998Z,75.68
2022-08-26T09:04:53.169Z,75.92
2022-08-26T09:06:00.515Z,76.02
2022-08-26T09:07:12.688Z,76.19
2022-08-26T09:08:30.037Z,75.90
2022-08-26T09:09:43.896Z,75.90
2022-08-26T09:10:57.504Z,75.80
2022-08-26T09:12:06.172Z,75.74
2022-08-26T09:13:16.952Z,76.19
2022-08-26T09:14:34.464Z,76.07
2022-08-26T09:15:57.889Z,76.30
2022-08-26T09:17:31.630Z,76.66
2022-08-26T09:18:53.850Z,76.76
2022-08-26T09:20:35.500Z,76.70
2022-08-26T09:21:44.343Z,76.94
2022-08-26T09:22:52.649Z,77.10
2022-08-26T09:23:59.961Z,76.73
2022-08-26T09:25:11.225Z,76.75
2022-08-26T09:26:43.894Z,77.17
2022-08-26T09:27:53.321Z,77.99
2022-08-26T09:29:05.484Z,77.92
2022-08-26T09:30:24.878Z,77.68
2022-08-26T09:31:37.786Z,77.51
2022-08-26T09:32:55.998Z,77.44
2022-08-26T09:34:07.935Z,77.47
2022-08-26T09:35:43.162Z,77.54
2022-08-26T09:36:57.386Z,77.12
2022-08-26T09:38:04.860Z,77.46
2022-08-26T09:39:28.167Z,77.45
2022-08-26T09:40:36.404Z,77.91
2022-08-26T09:41:43.813Z,78.12
2022-08-26T09:43:11.450Z,78.12
2022-08-26T09:44:21.976Z,78.18
2022-08-26T09:45:31.985Z,77.99
2022-08-26T09:46:41.575Z,78.22
2022-08-26T09:47:50.303Z,78.39
2022-08-26T09:48:57.962Z,78.70
2022-08-26T09:50:12.393Z,78.83
2022-08-26T09:51:25.972Z,78.99
2022-08-26T09:52:35.059Z,79.05
2022-08-26T09:54:03.059Z,79.04
2022-08-26T09:55:14.378Z,79.11
2022-08-26T09:56:29.039Z,79.14
2022-08-26T09:57:39.011Z,79.39
2022-08-26T09:58:48.473Z,79.69
2022-08-26T09:59:55.983Z,79.77
2022-08-26T10:01:05.461Z,79.75
2022-08-26T10:02:31.495Z,79.90
2022-08-26T10:03:39.893Z,79.95
2022-08-26T10:04:56.141Z,79.83
2022-08-26T10:06:24.705Z,79.71
2022-08-26T10:07:44.401Z,80.21
2022-08-26T10:08:56.196Z,80.81
2022-08-26T10:10:05.262Z,80.88
2022-08-26T10:11:53.868Z,80.94
2022-08-26T10:13:05.979Z,80.77
2022-08-26T10:14:28.932Z,80.63
2022-08-26T10:16:05.985Z,80.56
2022-08-26T10:17:41.764Z,81.23
2022-08-26T10:18:59.911Z,81.91
2022-08-26T10:20:23.197Z,81.63
2022-08-26T10:21:48.456Z,81.43
2022-08-26T10:23:06.938Z,81.37
2022-08-26T10:24:14.362Z,81.43
2022-08-26T10:25:27.367Z,81.42
2022-08-26T10:26:43.682Z,81.52
2022-08-26T10:28:11.087Z,81.75
2022-08-26T10:29:23.560Z,81.78
2022-08-26T10:30:42.907Z,82.04
2022-08-26T10:31:58.750Z,82.85
2022-08-26T10:33:11.737Z,83.06
2022-08-26T10:34:21.105Z,83.06
2022-08-26T10:35:30.118Z,82.94
2022-08-26T10:37:15.216Z,82.88
2022-08-26T10:38:24.118Z,82.70
2022-08-26T10:39:39.648Z,82.71
2022-08-26T10:41:01.357Z,82.55
2022-08-26T10:42:18.349Z,82.72
2022-08-26T10:43:50.782Z,82.66
2022-08-26T10:44:58.859Z,83.17
2022-08-26T10:46:07.380Z,83.34
2022-08-26T10:47:26.978Z,83.02
2022-08-26T10:48:40.635Z,82.89
2022-08-26T10:49:49.497Z,83.06
2022-08-26T10:50:57.333Z,83.22
2022-08-26T10:52:23.660Z,83.70
2022-08-26T10:53:51.608Z,83.72
2022-08-26T10:55:05.133Z,83.29
2022-08-26T10:56:30.941Z,83.20
2022-08-26T10:58:09.199Z,82.98
2022-08-26T10:59:47.994Z,82.70
2022-08-26T11:01:22.692Z,82.57
2022-08-26T11:02:47.063Z,82.56
2022-08-26T11:04:13.034Z,82.67
2022-08-26T11:05:21.237Z,82.79
2022-08-26T11:06:30.419Z,83.01
2022-08-26T11:07:47.714Z,83.32
2022-08-26T11:08:58.004Z,83.42
2022-08-26T11:10:21.741Z,83.43
2022-08-26T11:11:49.392Z,83.42
2022-08-26T11:13:04.836Z,83.28
2022-08-26T11:14:28.917Z,83.00
2022-08-26T11:15:42.864Z,83.04
2022-08-26T11:16:55.471Z,83.01
2022-08-26T11:18:04.034Z,82.94
2022-08-26T11:19:11.915Z,83.47
2022-08-26T11:20:25.095Z,84.68
2022-08-26T11:21:51.669Z,84.47
2022-08-26T11:23:19.486Z,84.38
2022-08-26T11:25:01.576Z,84.61
2022-08-26T11:26:12.373Z,84.79
2022-08-26T11:27:28.818Z,85.20
2022-08-26T11:28:46.674Z,85.76
2022-08-26T11:30:07.164Z,86.46
2022-08-26T11:31:21.304Z,86.52
2022-08-26T11:32:49.418Z,86.59
2022-08-26T11:34:05.342Z,86.55
2022-08-26T11:35:13.027Z,86.46
2022-08-26T11:36:44.494Z,86.50
2022-08-26T11:38:04.302Z,86.27
2022-08-26T11:39:38.666Z,86.37
2022-08-26T11:40:47.846Z,86.40
2022-08-26T11:41:57.846Z,86.62
2022-08-26T11:43:36.497Z,86.77
2022-08-26T11:44:49.258Z,87.51
2022-08-26T11:46:06.922Z,87.40
2022-08-26T11:47:17.626Z,87.21
2022-08-26T11:48:33.145Z,87.01
2022-08-26T11:49:41.952Z,86.86
2022-08-26T11:51:02.583Z,87.05
2022-08-26T11:52:13.965Z,87.27
2022-08-26T11:53:21.504Z,87.29
2022-08-26T11:54:35.815Z,87.30
2022-08-26T11:55:47.365Z,87.38
2022-08-26T11:56:55.656Z,87.68
2022-08-26T11:58:04.794Z,88.03
2022-08-26T11:59:16.767Z,88.00
2022-08-26T12:00:37.984Z,87.77
2022-08-26T12:01:51.860Z,87.85
2022-08-26T12:03:00.999Z,87.71
2022-08-26T12:04:10.096Z,88.03
2022-08-26T12:05:19.502Z,88.61
2022-08-26T12:06:28.649Z,88.94
2022-08-26T12:07:38.105Z,89.18
2022-08-26T12:08:51.136Z,89.22
2022-08-26T12:10:03.297Z,89.07
2022-08-26T12:11:18.186Z,89.31
2022-08-26T12:12:35.051Z,89.32
2022-08-26T12:13:46.407Z,89.34
2022-08-26T12:15:21.610Z,89.41
2022-08-26T12:16:38.860Z,89.51
2022-08-26T12:17:49.440Z,90.06
2022-08-26T12:19:01.529Z,90.65
2022-08-26T12:20:18.757Z,90.94
2022-08-26T12:21:36.221Z,91.14
2022-08-26T12:22:48.015Z,91.44
2022-08-26T12:23:57.447Z,91.65
2022-08-26T12:25:07.199Z,92.06
2022-08-26T12:26:31.498Z,92.30
2022-08-26T12:27:46.210Z,92.40
2022-08-26T12:29:01.049Z,92.76
2022-08-26T12:30:17.934Z,92.89
2022-08-26T12:31:30.525Z,92.72
2022-08-26T12:32:57.166Z,92.75
2022-08-26T12:34:07.429Z,93.16
2022-08-26T12:35:25.611Z,93.24
2022-08-26T12:36:34.190Z,93.19
2022-08-26T12:37:52.489Z,92.88
2022-08-26T12:39:08.023Z,93.37
2022-08-26T12:40:35.624Z,94.01
2022-08-26T12:41:51.777Z,94.07
2022-08-26T12:43:01.546Z,94.13
2022-08-26T12:44:08.955Z,93.79
2022-08-26T12:45:16.620Z,93.83
2022-08-26T12:46:30.161Z,93.60
2022-08-26T12:47:45.386Z,93.27
2022-08-26T12:48:53.407Z,93.47
2022-08-26T12:50:23.888Z,94.10
2022-08-26T12:51:33.528Z,94.25
2022-08-26T12:53:08.459Z,94.55
2022-08-26T12:54:17.688Z,94.38
2022-08-26T12:55:30.004Z,94.07
2022-08-26T12:56:41.392Z,93.99
2022-08-26T12:57:49.841Z,94.28
2022-08-26T12:59:07.954Z,94.19
2022-08-26T13:00:36.650Z,94.14
2022-08-26T13:01:46.380Z,93.89
2022-08-26T13:02:54.891Z,93.56
2022-08-26T13:04:02.692Z,93.57
2022-08-26T13:05:10.700Z,93.61
2022-08-26T13:06:24.080Z,93.64
2022-08-26T13:07:32.178Z,93.78
2022-08-26T13:08:47.501Z,93.93
2022-08-26T13:09:57.173Z,93.70
2022-08-26T13:11:19.758Z,93.62
2022-08-26T13:12:35.110Z,93.52
2022-08-26T13:13:43.437Z,93.62
2022-08-26T13:14:52.561Z,93.50
2022-08-26T13:16:01.448Z,93.30
2022-08-26T13:17:09.392Z,93.27
2022-08-26T13:18:17.001Z,93.26
2022-08-26T13:19:27.170Z,93.25
2022-08-26T13:20:35.611Z,93.08
2022-08-26T13:21:55.918Z,93.31
2022-08-26T13:23:05.581Z,93.54
2022-08-26T13:24:13.692Z,93.75
2022-08-26T13:25:21.238Z,94.10
2022-08-26T13:26:29.054Z,94.04
2022-08-26T13:27:38.451Z,93.93
2022-08-26T13:28:47.707Z,93.95
2022-08-26T13:30:09.761Z,93.67
2022-08-26T13:31:21.716Z,93.29
2022-08-26T13:32:36.243Z,93.05
2022-08-26T13:33:50.156Z,92.58
2022-08-26T13:34:58.068Z,92.08
2022-08-26T13:36:06.390Z,91.91
2022-08-26T13:37:13.458Z,91.87
2022-08-26T13:38:33.635Z,91.85
2022-08-26T13:39:44.114Z,91.87
2022-08-26T13:40:52.250Z,91.57
2022-08-26T13:42:00.398Z,91.45
2022-08-26T13:43:08.515Z,91.05
2022-08-26T13:44:16.741Z,90.53
2022-08-26T13:45:24.891Z,90.14
2022-08-26T13:46:34.119Z,90.07
2022-08-26T13:47:43.441Z,90.31
2022-08-26T13:48:51.543Z,89.92
2022-08-26T13:50:00.110Z,89.34
2022-08-26T13:51:08.930Z,88.48
2022-08-26T13:52:16.420Z,87.50
2022-08-26T13:53:24.918Z,86.88
2022-08-26T13:54:33.371Z,85.87
2022-08-26T13:55:42.484Z,84.56
2022-08-26T13:56:50.289Z,83.88
2022-08-26T13:57:58.126Z,82.89
2022-08-26T13:59:05.810Z,81.97
2022-08-26T14:00:14.409Z,81.24
2022-08-26T14:01:21.699Z,80.53
2022-08-26T14:02:29.838Z,79.54
2022-08-26T14:03:38.345Z,78.89
2022-08-26T14:04:46.439Z,78.98
2022-08-26T14:05:57.212Z,78.84
2022-08-26T14:07:08.241Z,79.36
2022-08-26T14:08:18.319Z,79.66
2022-08-26T14:09:27.301Z,80.13
2022-08-26T14:10:36.280Z,80.40
2022-08-26T14:11:54.241Z,79.63
2022-08-26T14:13:03.741Z,78.51
2022-08-26T14:14:12.146Z,76.83
2022-08-26T14:15:20.182Z,74.71
2022-08-26T14:16:29.451Z,73.07
2022-08-26T14:17:38.010Z,72.26
2022-08-26T14:18:50.571Z,70.78
2022-08-26T14:19:59.749Z,69.91
2022-08-26T14:21:07.667Z,68.76
2022-08-26T14:22:17.775Z,68.39
2022-08-26T14:23:26.993Z,67.84
2022-08-26T14:24:35.025Z,67.24
2022-08-26T14:25:43.249Z,66.75
2022-08-26T14:26:52.695Z,66.51
2022-08-26T14:28:00.504Z,66.07
2022-08-26T14:29:12.383Z,65.44
2022-08-26T14:30:23.171Z,64.99
2022-08-26T14:31:33.467Z,64.72
2022-08-26T14:32:47.264Z,64.32
2022-08-26T14:33:55.211Z,63.92
2022-08-26T14:35:03.730Z,63.48
2022-08-26T14:36:30.418Z,63.01
2022-08-26T14:37:39.209Z,62.09
2022-08-26T14:38:48.185Z,61.40
2022-08-26T14:39:56.853Z,60.51
2022-08-26T14:41:08.392Z,59.75
2022-08-26T14:42:17.931Z,58.75
2022-08-26T14:43:25.649Z,58.80
2022-08-26T14:44:34.238Z,57.88
2022-08-26T14:45:46.560Z,57.58
2022-08-26T14:46:54.217Z,57.18
2022-08-26T14:48:02.177Z,57.27
2022-08-26T14:49:10.816Z,56.51
2022-08-26T14:50:20.456Z,56.80
2022-08-26T14:51:28.628Z,56.78
2022-08-26T14:52:56.898Z,56.37
2022-08-26T14:54:13.940Z,55.63
2022-08-26T14:55:21.288Z,55.73
2022-08-26T14:56:29.429Z,55.90
2022-08-26T14:57:37.839Z,56.41
2022-08-26T14:58:46.559Z,56.42
2022-08-26T14:59:54.057Z,56.26
2022-08-26T15:01:04.134Z,56.35
2022-08-26T15:02:32.436Z,55.87
2022-08-26T15:03:43.064Z,55.95
2022-08-26T15:04:51.803Z,55.08
2022-08-26T15:06:00.551Z,55.37
2022-08-26T15:07:08.750Z,55.48
2022-08-26T15:08:22.380Z,55.00
2022-08-26T15:09:31.367Z,55.29
2022-08-26T15:10:39.818Z,55.41
2022-08-26T15:11:48.144Z,54.74
2022-08-26T15:12:56.419Z,54.04
2022-08-26T15:14:05.244Z,53.58
2022-08-26T15:15:17.975Z,53.76
2022-08-26T15:16:26.119Z,53.70
2022-08-26T15:17:35.951Z,52.94
2022-08-26T15:18:44.118Z,52.19
2022-08-26T15:19:53.320Z,52.04
2022-08-26T15:21:01.285Z,52.07
2022-08-26T15:22:08.895Z,52.09
2022-08-26T15:23:16.066Z,51.77
2022-08-26T15:24:30.440Z,51.75
2022-08-26T15:25:38.639Z,51.46
2022-08-26T15:26:47.090Z,50.92
2022-08-26T15:27:54.501Z,50.76
2022-08-26T15:29:05.017Z,49.98
2022-08-26T15:30:13.503Z,48.43